Portada
METAR-TAF:

METAR-TAF

Aeroports :

Nan, Tailàndia

latitud: 18-46N, longitud: 100-46E, altitud: 200 m

Observació

L'informe es va fer fa 42 minuts, a les 02:00 UTC
Vent 1 kt amb direcció variable
Temperatura 28°C
Humitat 79%
Pressió 1008 hPa
Visibilitat 10 km o més
Núvols disperses a una alçada de 2500 ft
Núvols disperses a una alçada de 10000 ft

METAR: VTCN 190200Z VRB01KT 9999 SCT025 SCT100 28/24 Q1008 NOSIG

Hora: 09:42 (02:42 UTC)

Pronòstic

L'informe es va fer fa 3 hores i 42 minuts, a les 23:00 UTC
Pronòstic vàlid del 19 a les 00 UTC al 19 a les 24 UTC
Vent 5 kt del Sud
Visibilitat 10 km o més
Cel ennuvolat a una alçada de 2500 ft
Temporalment
l' 19 a les 09 UTC al 19 a les 13 UTC
Vent 15 kt amb direcció variable amb ràfegues de 35 kt
Visibilitat: 5000 m
Escasses núvols a una alçada de 2000 ft, Cumulonimbus.
Cel ennuvolat a una alçada de 2500 ft
tempesta, pluja

TAF: VTCN 182300Z 1900/1924 18005KT 9999 BKN025 TEMPO 1909/1913 VRB15G35KT 5000 TSRA FEW020CB BKN025

Observacions i pronòstics meteorològics de més de 4000 aeroports (METAR i TAF).

Les estacions disponibles són els punts grocs i vermells al mapa.

Posi el ratolí al punt desitjat per veure el nom de l'estació.

Feu clic per veure les observacions i els pronòstics meteorològics.

Per canviar el mapa: feu clic els botons verds amb una creu de color negre per apropar; al botó verd amb un guió per allunyar la imatge; o en les fletxes verdes per a mapes adjacents.


METAR-TAF: